createdAt,value
2022-07-27T00:01:35.002Z,18.60
2022-07-27T00:04:02.811Z,18.60
2022-07-27T00:06:30.663Z,18.60
2022-07-27T00:08:58.464Z,18.60
2022-07-27T00:11:27.617Z,18.90
2022-07-27T00:13:55.389Z,18.50
2022-07-27T00:16:33.684Z,18.60
2022-07-27T00:19:01.506Z,18.50
2022-07-27T00:21:29.326Z,18.50
2022-07-27T00:23:57.278Z,18.50
2022-07-27T00:26:40.568Z,18.50
2022-07-27T00:29:09.440Z,18.50
2022-07-27T00:31:37.754Z,18.50
2022-07-27T00:34:06.270Z,18.40
2022-07-27T00:36:34.080Z,18.40
2022-07-27T00:39:01.845Z,18.30
2022-07-27T00:41:29.650Z,18.90
2022-07-27T00:44:00.393Z,18.30
2022-07-27T00:46:34.185Z,18.20
2022-07-27T00:49:02.183Z,18.20
2022-07-27T00:51:34.159Z,18.20
2022-07-27T00:54:02.051Z,18.10
2022-07-27T00:56:29.947Z,18.10
2022-07-27T00:58:59.107Z,18.10
2022-07-27T01:01:27.005Z,18.10
2022-07-27T01:03:54.802Z,18.10
2022-07-27T01:06:26.785Z,18.10
2022-07-27T01:09:15.845Z,18.00
2022-07-27T01:11:43.976Z,18.00
2022-07-27T01:14:14.091Z,18.00
2022-07-27T01:16:42.079Z,17.90
2022-07-27T01:19:11.982Z,17.90
2022-07-27T01:21:41.368Z,17.90
2022-07-27T01:24:09.662Z,17.90
2022-07-27T01:26:38.599Z,17.90
2022-07-27T01:29:06.443Z,17.90
2022-07-27T01:31:34.454Z,17.80
2022-07-27T01:34:02.491Z,17.80
2022-07-27T01:36:31.124Z,17.80
2022-07-27T01:39:00.302Z,17.80
2022-07-27T01:41:28.113Z,18.90
2022-07-27T01:43:55.932Z,17.80
2022-07-27T01:46:24.188Z,17.70
2022-07-27T01:48:52.083Z,17.70
2022-07-27T01:51:19.922Z,17.60
2022-07-27T01:53:47.668Z,17.70
2022-07-27T01:56:16.858Z,17.60
2022-07-27T01:58:44.872Z,17.60
2022-07-27T02:01:12.783Z,17.60
2022-07-27T02:03:40.675Z,17.60
2022-07-27T02:06:09.838Z,17.50
2022-07-27T02:08:37.673Z,17.50
2022-07-27T02:11:22.936Z,17.40
2022-07-27T02:13:54.036Z,17.40
2022-07-27T02:16:21.934Z,17.40
2022-07-27T02:18:52.331Z,17.40
2022-07-27T02:21:21.157Z,17.30
2022-07-27T02:23:48.966Z,17.30
2022-07-27T02:26:16.764Z,17.30
2022-07-27T02:28:44.507Z,17.30
2022-07-27T02:31:13.617Z,17.30
2022-07-27T02:33:41.366Z,17.20
2022-07-27T02:36:09.581Z,17.30
2022-07-27T02:38:37.900Z,17.20
2022-07-27T02:41:05.713Z,17.20
2022-07-27T02:43:33.481Z,17.20
2022-07-27T02:46:01.326Z,17.20
2022-07-27T02:48:32.315Z,17.10
2022-07-27T02:51:01.741Z,17.10
2022-07-27T02:53:29.725Z,17.10
2022-07-27T02:55:57.691Z,17.10
2022-07-27T02:58:25.733Z,17.00
2022-07-27T03:00:58.224Z,17.00
2022-07-27T03:03:33.271Z,17.00
2022-07-27T03:06:19.615Z,16.90
2022-07-27T03:08:47.381Z,16.90
2022-07-27T03:11:16.262Z,16.90
2022-07-27T03:13:45.992Z,16.80
2022-07-27T03:16:13.856Z,16.70
2022-07-27T03:18:41.715Z,16.70
2022-07-27T03:21:09.786Z,16.60
2022-07-27T03:23:40.425Z,16.60
2022-07-27T03:26:08.646Z,16.60
2022-07-27T03:28:36.388Z,16.60
2022-07-27T03:31:04.580Z,16.60
2022-07-27T03:33:37.310Z,16.60
2022-07-27T03:36:05.933Z,16.60
2022-07-27T03:38:33.721Z,16.60
2022-07-27T03:41:10.861Z,16.60
2022-07-27T03:43:38.634Z,16.60
2022-07-27T03:46:06.479Z,16.60
2022-07-27T03:48:34.297Z,16.60
2022-07-27T03:51:02.139Z,16.60
2022-07-27T03:53:29.928Z,16.60
2022-07-27T03:55:57.716Z,16.80
2022-07-27T03:58:26.801Z,16.60
2022-07-27T04:00:56.661Z,16.60
2022-07-27T04:03:24.468Z,16.60
2022-07-27T04:05:52.251Z,16.60
2022-07-27T04:08:21.224Z,16.60
2022-07-27T04:10:49.320Z,16.60
2022-07-27T04:13:18.193Z,16.60
2022-07-27T04:15:47.281Z,16.60
2022-07-27T04:18:15.067Z,16.60
2022-07-27T04:20:43.853Z,16.60
2022-07-27T04:23:11.613Z,16.60
2022-07-27T04:25:39.391Z,16.70
2022-07-27T04:28:07.148Z,16.70
2022-07-27T04:30:35.166Z,16.70
2022-07-27T04:33:05.138Z,16.70
2022-07-27T04:35:32.962Z,16.80
2022-07-27T04:38:00.717Z,16.80
2022-07-27T04:40:32.907Z,16.80
2022-07-27T04:43:01.418Z,16.80
2022-07-27T04:45:29.904Z,16.80
2022-07-27T04:47:57.682Z,16.80
2022-07-27T04:50:26.808Z,17.90
2022-07-27T04:52:54.552Z,16.80
2022-07-27T04:55:22.574Z,16.80
2022-07-27T04:57:50.935Z,16.80
2022-07-27T05:00:19.270Z,16.80
2022-07-27T05:02:47.027Z,16.90
2022-07-27T05:05:14.770Z,16.90
2022-07-27T05:07:43.875Z,16.90
2022-07-27T05:10:15.302Z,16.80
2022-07-27T05:12:45.818Z,16.80
2022-07-27T05:15:13.595Z,16.80
2022-07-27T05:20:10.781Z,16.80
2022-07-27T05:22:40.014Z,16.90
2022-07-27T05:25:10.272Z,16.90
2022-07-27T05:27:54.026Z,17.00
2022-07-27T05:30:23.143Z,17.00
2022-07-27T05:32:50.907Z,17.10
2022-07-27T05:35:18.701Z,17.20
2022-07-27T05:37:46.981Z,17.20
2022-07-27T05:40:16.225Z,17.30
2022-07-27T05:42:44.729Z,17.80
2022-07-27T05:45:12.883Z,17.50
2022-07-27T05:47:41.068Z,17.60
2022-07-27T05:50:09.489Z,17.70
2022-07-27T05:52:38.138Z,17.80
2022-07-27T05:55:07.034Z,17.70
2022-07-27T05:57:38.074Z,17.70
2022-07-27T06:00:07.654Z,17.70
2022-07-27T06:02:35.448Z,17.70
2022-07-27T06:05:03.550Z,17.70
2022-07-27T06:07:49.818Z,17.60
2022-07-27T06:10:19.814Z,17.70
2022-07-27T06:12:49.235Z,17.70
2022-07-27T06:15:19.521Z,17.70
2022-07-27T06:17:49.249Z,17.80
2022-07-27T06:20:17.133Z,17.70
2022-07-27T06:22:47.033Z,17.60
2022-07-27T06:25:14.889Z,17.60
2022-07-27T06:27:42.888Z,17.70
2022-07-27T06:30:13.432Z,17.70
2022-07-27T06:32:41.243Z,17.70
2022-07-27T06:35:12.640Z,17.70
2022-07-27T06:37:43.932Z,17.70
2022-07-27T06:40:14.078Z,17.90
2022-07-27T06:42:42.182Z,18.00
2022-07-27T06:45:13.447Z,18.00
2022-07-27T06:47:49.054Z,18.10
2022-07-27T06:50:18.001Z,18.10
2022-07-27T06:52:45.776Z,18.20
2022-07-27T06:55:13.942Z,18.20
2022-07-27T06:57:42.769Z,18.10
2022-07-27T07:00:19.231Z,18.10
2022-07-27T07:02:55.218Z,18.20
2022-07-27T07:05:23.971Z,18.10
2022-07-27T07:07:52.091Z,18.10
2022-07-27T07:10:21.668Z,18.10
2022-07-27T07:13:06.383Z,18.20
2022-07-27T07:15:41.430Z,18.10
2022-07-27T07:18:18.152Z,18.10
2022-07-27T07:20:47.897Z,18.10
2022-07-27T07:23:15.715Z,18.00
2022-07-27T07:25:45.917Z,18.10
2022-07-27T07:28:13.686Z,18.10
2022-07-27T07:30:42.941Z,18.00
2022-07-27T07:33:10.710Z,18.10
2022-07-27T07:35:38.516Z,18.20
2022-07-27T07:38:26.305Z,18.20
2022-07-27T07:40:54.048Z,18.30
2022-07-27T07:43:21.978Z,18.30
2022-07-27T07:45:52.148Z,18.40
2022-07-27T07:48:21.697Z,18.50
2022-07-27T07:50:51.375Z,18.40
2022-07-27T07:53:19.516Z,18.40
2022-07-27T07:55:47.315Z,18.40
2022-07-27T07:58:15.114Z,18.40
2022-07-27T08:00:43.720Z,18.30
2022-07-27T08:03:12.946Z,18.20
2022-07-27T08:05:40.849Z,18.20
2022-07-27T08:08:08.624Z,18.20
2022-07-27T08:10:36.718Z,18.30
2022-07-27T08:13:05.093Z,18.40
2022-07-27T08:15:35.871Z,18.50
2022-07-27T08:18:04.490Z,18.70
2022-07-27T08:20:34.012Z,18.90
2022-07-27T08:23:08.807Z,19.00
2022-07-27T08:25:39.286Z,19.00
2022-07-27T08:28:07.602Z,19.10
2022-07-27T08:30:35.699Z,19.20
2022-07-27T08:33:06.152Z,19.30
2022-07-27T08:35:36.125Z,19.30
2022-07-27T08:38:06.725Z,19.40
2022-07-27T08:40:41.331Z,19.40
2022-07-27T08:43:12.161Z,19.40
2022-07-27T08:45:41.540Z,19.50
2022-07-27T08:48:13.594Z,19.60
2022-07-27T08:50:43.266Z,19.60
2022-07-27T08:53:13.706Z,19.70
2022-07-27T08:55:43.665Z,19.70
2022-07-27T08:58:13.224Z,19.80
2022-07-27T09:00:44.725Z,19.80
2022-07-27T09:03:18.561Z,19.90
2022-07-27T09:05:51.518Z,19.90
2022-07-27T09:08:24.113Z,19.90
2022-07-27T09:10:54.333Z,20.10
2022-07-27T09:13:25.051Z,20.20
2022-07-27T09:18:42.737Z,20.30
2022-07-27T09:21:17.099Z,20.40
2022-07-27T09:23:48.556Z,20.50
2022-07-27T09:26:32.497Z,20.60
2022-07-27T09:29:03.061Z,20.60
2022-07-27T09:31:31.538Z,20.70
2022-07-27T09:34:00.662Z,20.70
2022-07-27T09:36:30.772Z,20.60
2022-07-27T09:39:03.240Z,20.60
2022-07-27T09:41:42.971Z,20.60
2022-07-27T09:44:31.442Z,20.80
2022-07-27T09:47:00.996Z,20.90
2022-07-27T09:49:31.964Z,21.20
2022-07-27T09:52:02.931Z,21.40
2022-07-27T09:54:44.109Z,21.70
2022-07-27T09:57:12.064Z,21.70
2022-07-27T09:59:47.789Z,21.70
2022-07-27T10:02:16.223Z,21.60
2022-07-27T10:04:44.931Z,21.60
2022-07-27T10:07:14.574Z,21.30
2022-07-27T10:09:43.216Z,21.10
2022-07-27T10:12:11.293Z,21.10
2022-07-27T10:14:39.057Z,21.10
2022-07-27T10:17:10.611Z,21.30
2022-07-27T10:19:46.058Z,21.50
2022-07-27T10:22:15.986Z,21.50
2022-07-27T10:24:44.129Z,21.50
2022-07-27T10:27:22.937Z,21.30
2022-07-27T10:29:52.381Z,21.30
2022-07-27T10:32:31.020Z,21.40
2022-07-27T10:35:03.181Z,21.50
2022-07-27T10:37:34.905Z,21.60
2022-07-27T10:40:23.251Z,21.80
2022-07-27T10:42:54.589Z,21.90
2022-07-27T10:45:23.173Z,22.00
2022-07-27T10:47:53.081Z,22.10
2022-07-27T10:50:31.929Z,22.20
2022-07-27T10:53:14.621Z,22.30
2022-07-27T10:55:52.509Z,22.30
2022-07-27T10:58:53.027Z,22.10
2022-07-27T11:01:23.622Z,21.80
2022-07-27T11:03:56.136Z,21.60
2022-07-27T11:06:55.446Z,21.50
2022-07-27T11:12:05.727Z,22.10
2022-07-27T11:14:45.081Z,22.50
2022-07-27T11:20:04.433Z,22.70
2022-07-27T11:25:30.803Z,22.60
2022-07-27T11:27:58.543Z,22.40
2022-07-27T11:30:28.431Z,22.50
2022-07-27T11:32:57.119Z,22.50
2022-07-27T11:35:25.234Z,22.50
2022-07-27T11:38:03.711Z,24.00
2022-07-27T11:40:59.830Z,22.80
2022-07-27T11:43:45.189Z,23.00
2022-07-27T11:46:15.861Z,22.90
2022-07-27T11:49:08.722Z,22.80
2022-07-27T11:51:42.005Z,22.80
2022-07-27T11:54:14.280Z,22.90
2022-07-27T11:56:47.113Z,22.80
2022-07-27T11:59:18.057Z,22.70
2022-07-27T12:01:49.157Z,22.50
2022-07-27T12:04:25.716Z,22.40
2022-07-27T12:07:02.852Z,22.40
2022-07-27T12:09:38.372Z,22.40
2022-07-27T12:12:16.983Z,22.60
2022-07-27T12:14:48.710Z,22.90
2022-07-27T12:17:19.695Z,23.10
2022-07-27T12:19:59.851Z,23.10
2022-07-27T12:22:33.138Z,23.30
2022-07-27T12:25:05.661Z,23.30
2022-07-27T12:27:40.125Z,23.10
2022-07-27T12:30:13.003Z,23.00
2022-07-27T12:32:43.741Z,22.90
2022-07-27T12:35:37.869Z,22.90
2022-07-27T12:38:09.271Z,23.00
2022-07-27T12:40:45.364Z,23.10
2022-07-27T12:43:18.118Z,23.20
2022-07-27T12:45:47.318Z,23.40
2022-07-27T12:48:18.408Z,23.00
2022-07-27T12:51:03.021Z,23.00
2022-07-27T12:53:32.480Z,23.10
2022-07-27T12:56:02.438Z,23.20
2022-07-27T12:58:33.743Z,23.30
2022-07-27T13:01:11.590Z,23.40
2022-07-27T13:03:39.472Z,23.50
2022-07-27T13:06:13.054Z,23.60
2022-07-27T13:08:41.270Z,23.60
2022-07-27T13:11:11.021Z,23.40
2022-07-27T13:13:44.993Z,23.30
2022-07-27T13:16:12.825Z,23.20
2022-07-27T13:18:40.636Z,23.10
2022-07-27T13:21:14.190Z,23.10
2022-07-27T13:23:43.164Z,23.10
2022-07-27T13:26:10.959Z,23.10
2022-07-27T13:28:38.760Z,23.50
2022-07-27T13:31:08.372Z,23.70
2022-07-27T13:33:36.165Z,23.90
2022-07-27T13:36:10.242Z,24.10
2022-07-27T13:38:38.020Z,24.10
2022-07-27T13:41:05.797Z,24.20
2022-07-27T13:43:33.740Z,24.20
2022-07-27T13:46:03.221Z,24.20
2022-07-27T13:48:32.746Z,24.10
2022-07-27T13:51:01.605Z,24.20
2022-07-27T13:53:30.934Z,24.50
2022-07-27T13:55:58.742Z,24.50
2022-07-27T13:58:26.542Z,24.40
2022-07-27T14:00:54.343Z,24.60
2022-07-27T14:03:22.225Z,24.80
2022-07-27T14:05:51.945Z,24.80
2022-07-27T14:08:21.761Z,24.60
2022-07-27T14:11:03.223Z,24.50
2022-07-27T14:13:32.727Z,24.50
2022-07-27T14:16:01.590Z,24.50
2022-07-27T14:18:30.809Z,24.40
2022-07-27T14:21:02.164Z,24.10
2022-07-27T14:23:30.099Z,23.90
2022-07-27T14:25:59.922Z,23.70
2022-07-27T14:28:29.300Z,23.70
2022-07-27T14:30:59.415Z,23.80
2022-07-27T14:33:36.373Z,23.90
2022-07-27T14:36:07.074Z,24.00
2022-07-27T14:38:36.649Z,24.10
2022-07-27T14:41:04.721Z,24.30
2022-07-27T14:43:32.910Z,24.30
2022-07-27T14:46:01.003Z,24.40
2022-07-27T14:48:48.916Z,24.10
2022-07-27T14:51:18.191Z,24.20
2022-07-27T14:53:46.033Z,24.20
2022-07-27T14:56:14.148Z,24.40
2022-07-27T14:58:43.397Z,24.20
2022-07-27T15:01:11.213Z,23.90
2022-07-27T15:03:39.029Z,24.10
2022-07-27T15:06:07.186Z,24.20
2022-07-27T15:08:36.312Z,24.30
2022-07-27T15:11:04.230Z,25.00
2022-07-27T15:13:32.102Z,24.70
2022-07-27T15:15:59.949Z,24.60
2022-07-27T15:18:27.800Z,24.50
2022-07-27T15:20:55.669Z,24.70
2022-07-27T15:23:23.566Z,25.00
2022-07-27T15:25:53.705Z,24.90
2022-07-27T15:28:21.668Z,25.10
2022-07-27T15:30:50.418Z,25.20
2022-07-27T15:33:18.214Z,25.20
2022-07-27T15:35:45.971Z,25.10
2022-07-27T15:38:16.687Z,25.10
2022-07-27T15:40:44.491Z,25.10
2022-07-27T15:43:15.780Z,25.00
2022-07-27T15:45:48.207Z,24.90
2022-07-27T15:48:19.312Z,25.00
2022-07-27T15:50:51.074Z,24.90
2022-07-27T15:53:21.029Z,24.80
2022-07-27T15:55:49.708Z,24.80
2022-07-27T15:58:19.510Z,25.00
2022-07-27T16:00:48.944Z,25.10
2022-07-27T16:03:17.174Z,25.10
2022-07-27T16:05:47.486Z,25.40
2022-07-27T16:08:16.345Z,25.80
2022-07-27T16:10:45.075Z,26.90
2022-07-27T16:13:13.723Z,28.00
2022-07-27T16:16:01.731Z,28.90
2022-07-27T16:18:38.381Z,29.70
2022-07-27T16:21:08.045Z,30.90
2022-07-27T16:23:35.988Z,31.30
2022-07-27T16:26:05.775Z,31.40
2022-07-27T16:28:36.981Z,32.00
2022-07-27T16:31:07.261Z,32.80
2022-07-27T16:33:35.073Z,33.60
2022-07-27T16:36:03.006Z,34.20
2022-07-27T16:38:30.800Z,34.10
2022-07-27T16:40:59.190Z,33.60
2022-07-27T16:43:38.491Z,33.20
2022-07-27T16:46:09.941Z,32.90
2022-07-27T16:48:41.692Z,33.20
2022-07-27T16:51:11.379Z,33.10
2022-07-27T16:53:39.791Z,33.50
2022-07-27T16:56:08.797Z,34.30
2022-07-27T16:58:36.996Z,35.00
2022-07-27T17:01:05.045Z,34.40
2022-07-27T17:03:34.243Z,34.20
2022-07-27T17:06:06.156Z,34.70
2022-07-27T17:08:34.797Z,34.90
2022-07-27T17:11:02.847Z,35.00
2022-07-27T17:13:34.090Z,35.40
2022-07-27T17:16:03.916Z,36.00
2022-07-27T17:18:38.928Z,35.80
2022-07-27T17:21:12.093Z,35.50
2022-07-27T17:23:43.972Z,34.30
2022-07-27T17:26:13.909Z,33.40
2022-07-27T17:28:42.168Z,33.00
2022-07-27T17:31:11.304Z,33.00
2022-07-27T17:33:40.907Z,33.40
2022-07-27T17:36:18.498Z,33.90
2022-07-27T17:38:47.334Z,33.80
2022-07-27T17:41:21.770Z,33.60
2022-07-27T17:43:52.942Z,33.70
2022-07-27T17:46:26.682Z,34.20
2022-07-27T17:48:55.472Z,34.50
2022-07-27T17:51:25.164Z,34.20
2022-07-27T17:53:54.082Z,33.90
2022-07-27T17:56:22.131Z,33.60
2022-07-27T17:58:50.669Z,33.10
2022-07-27T18:01:31.832Z,33.20
2022-07-27T18:04:14.125Z,33.30
2022-07-27T18:06:43.352Z,33.10
2022-07-27T18:09:11.784Z,32.50
2022-07-27T18:11:40.857Z,32.40
2022-07-27T18:14:09.646Z,32.00
2022-07-27T18:16:40.883Z,31.80
2022-07-27T18:19:09.117Z,31.90
2022-07-27T18:21:37.988Z,31.70
2022-07-27T18:24:10.463Z,31.40
2022-07-27T18:26:38.547Z,31.10
2022-07-27T18:29:06.757Z,30.60
2022-07-27T18:31:34.895Z,29.80
2022-07-27T18:34:03.138Z,29.00
2022-07-27T18:36:34.023Z,28.30
2022-07-27T18:39:01.787Z,27.80
2022-07-27T18:41:30.914Z,27.30
2022-07-27T18:43:58.722Z,26.80
2022-07-27T18:46:26.675Z,26.20
2022-07-27T18:48:54.528Z,25.60
2022-07-27T18:51:22.377Z,25.00
2022-07-27T18:53:50.214Z,24.50
2022-07-27T18:56:18.933Z,24.20
2022-07-27T18:58:48.808Z,23.90
2022-07-27T19:01:16.806Z,23.70
2022-07-27T19:03:44.600Z,23.50
2022-07-27T19:06:16.720Z,23.30
2022-07-27T19:08:46.457Z,23.00
2022-07-27T19:11:15.045Z,22.80
2022-07-27T19:13:44.102Z,22.60
2022-07-27T19:16:14.288Z,22.70
2022-07-27T19:18:42.091Z,22.30
2022-07-27T19:21:12.848Z,22.10
2022-07-27T19:23:40.737Z,21.90
2022-07-27T19:26:10.059Z,21.70
2022-07-27T19:28:38.205Z,21.50
2022-07-27T19:31:06.614Z,21.30
2022-07-27T19:33:52.380Z,21.20
2022-07-27T19:36:20.221Z,21.10
2022-07-27T19:38:48.104Z,21.10
2022-07-27T19:41:16.400Z,20.90
2022-07-27T19:43:44.287Z,20.80
2022-07-27T19:46:12.228Z,20.80
2022-07-27T19:48:40.164Z,20.60
2022-07-27T19:51:10.863Z,20.50
2022-07-27T19:53:40.392Z,20.50
2022-07-27T19:56:08.506Z,20.40
2022-07-27T19:58:36.319Z,20.40
2022-07-27T20:01:04.764Z,20.20
2022-07-27T20:03:52.083Z,20.30
2022-07-27T20:06:24.395Z,20.10
2022-07-27T20:08:55.628Z,20.10
2022-07-27T20:11:23.520Z,20.00
2022-07-27T20:13:51.282Z,19.90
2022-07-27T20:16:19.483Z,19.80
2022-07-27T20:18:47.377Z,19.70
2022-07-27T20:21:22.512Z,19.70
2022-07-27T20:23:53.163Z,19.60
2022-07-27T20:26:21.067Z,19.50
2022-07-27T20:28:49.847Z,19.50
2022-07-27T20:31:17.955Z,19.50
2022-07-27T20:33:45.826Z,19.40
2022-07-27T20:36:14.073Z,19.40
2022-07-27T20:38:41.924Z,19.30
2022-07-27T20:41:11.107Z,19.20
2022-07-27T20:43:40.952Z,19.20
2022-07-27T20:46:09.163Z,19.10
2022-07-27T20:48:38.394Z,19.00
2022-07-27T20:51:06.243Z,19.00
2022-07-27T20:53:34.018Z,19.10
2022-07-27T20:56:01.802Z,18.90
2022-07-27T20:58:31.545Z,18.90
2022-07-27T21:00:59.434Z,18.80
2022-07-27T21:03:27.292Z,18.80
2022-07-27T21:05:56.149Z,18.80
2022-07-27T21:08:23.980Z,18.60
2022-07-27T21:10:51.729Z,18.60
2022-07-27T21:13:19.549Z,18.50
2022-07-27T21:15:48.640Z,18.40
2022-07-27T21:18:16.506Z,18.40
2022-07-27T21:20:44.364Z,18.30
2022-07-27T21:23:29.547Z,18.30
2022-07-27T21:25:57.959Z,18.30
2022-07-27T21:28:26.293Z,18.30
2022-07-27T21:30:55.462Z,18.20
2022-07-27T21:33:23.265Z,18.10
2022-07-27T21:35:51.052Z,18.10
2022-07-27T21:38:18.784Z,18.10
2022-07-27T21:40:47.567Z,18.10
2022-07-27T21:43:15.322Z,18.00
2022-07-27T21:45:49.468Z,17.90
2022-07-27T21:48:22.579Z,17.90
2022-07-27T21:50:50.383Z,17.80
2022-07-27T21:53:18.297Z,17.80
2022-07-27T21:55:46.278Z,17.70
2022-07-27T21:58:15.365Z,17.70
2022-07-27T22:00:43.569Z,17.70
2022-07-27T22:03:11.472Z,17.70
2022-07-27T22:05:40.628Z,17.60
2022-07-27T22:08:08.380Z,17.60
2022-07-27T22:10:36.387Z,17.60
2022-07-27T22:13:04.661Z,17.70
2022-07-27T22:15:32.475Z,17.50
2022-07-27T22:18:00.218Z,17.40
2022-07-27T22:20:28.059Z,17.40
2022-07-27T22:22:57.206Z,17.30
2022-07-27T22:25:24.961Z,17.30
2022-07-27T22:27:52.746Z,17.30
2022-07-27T22:30:20.560Z,17.30
2022-07-27T22:32:48.311Z,17.20
2022-07-27T22:35:16.330Z,17.20
2022-07-27T22:37:44.546Z,18.30
2022-07-27T22:40:13.868Z,17.10
2022-07-27T22:42:43.907Z,17.00
2022-07-27T22:45:12.645Z,17.00
2022-07-27T22:47:42.345Z,16.90
2022-07-27T22:50:13.323Z,16.90
2022-07-27T22:52:45.822Z,16.90
2022-07-27T22:55:15.002Z,16.80
2022-07-27T22:57:45.859Z,16.80
2022-07-27T23:00:14.511Z,16.70
2022-07-27T23:02:42.296Z,16.70
2022-07-27T23:05:10.795Z,16.50
2022-07-27T23:07:38.643Z,16.50
2022-07-27T23:10:30.581Z,16.50
2022-07-27T23:12:59.967Z,16.50
2022-07-27T23:15:28.144Z,16.50
2022-07-27T23:17:55.928Z,16.40
2022-07-27T23:20:23.680Z,16.40
2022-07-27T23:22:51.517Z,16.40
2022-07-27T23:25:19.284Z,16.40
2022-07-27T23:27:49.805Z,16.30
2022-07-27T23:30:24.862Z,16.30
2022-07-27T23:32:54.384Z,16.30
2022-07-27T23:35:22.191Z,16.30
2022-07-27T23:37:49.968Z,16.30
2022-07-27T23:40:18.641Z,16.20
2022-07-27T23:42:46.593Z,16.20
2022-07-27T23:45:14.406Z,16.10
2022-07-27T23:47:45.042Z,16.00
2022-07-27T23:50:15.573Z,15.90
2022-07-27T23:52:43.320Z,15.80
2022-07-27T23:55:11.436Z,15.80
2022-07-27T23:57:39.216Z,15.80
